Time;durP1;ratioP1;P1;durP2;ratioP2;P2;SDS_P1;SDS_P2;PMS_P1;PMS_P2;Temp;Humidity;BMP_temperature;BMP_pressure;BME280_temperature;BME280_humidity;BME280_pressure;Samples;Min_cycle;Max_cycle;Signal;HPM_P1;HPM_P2
2021/04/24 00:02:19;;;;;;;2.93;1.73;;;8.60;81.20;;;;;;5068277;28;20213;-75
2021/04/24 00:04:45;;;;;;;2.53;1.50;;;8.60;81.70;;;;;;5068962;28;20227;-75
2021/04/24 00:07:12;;;;;;;2.13;1.90;;;8.60;82.30;;;;;;5069282;28;20207;-76
2021/04/24 00:09:39;;;;;;;2.63;1.60;;;8.40;83.20;;;;;;5069391;28;20215;-75
2021/04/24 00:12:07;;;;;;;1.70;1.60;;;8.40;83.40;;;;;;5069307;28;20219;-75
2021/04/24 00:14:33;;;;;;;2.50;1.90;;;8.50;83.70;;;;;;5069447;28;20562;-75
2021/04/24 00:17:00;;;;;;;2.10;1.70;;;8.50;84.00;;;;;;5068781;28;20649;-75
2021/04/24 00:19:26;;;;;;;1.87;1.77;;;8.50;84.40;;;;;;5069187;28;20604;-75
2021/04/24 00:21:52;;;;;;;2.37;1.80;;;8.50;84.70;;;;;;5069216;28;20207;-75
2021/04/24 00:24:18;;;;;;;3.33;1.57;;;8.60;85.00;;;;;;5068738;28;20238;-75
2021/04/24 00:26:45;;;;;;;3.13;1.97;;;8.60;84.90;;;;;;5069080;28;20199;-75
2021/04/24 00:29:11;;;;;;;2.73;1.83;;;8.60;85.60;;;;;;5067499;28;20220;-75
2021/04/24 00:31:37;;;;;;;2.43;1.80;;;8.40;86.60;;;;;;5048710;28;20262;-75
2021/04/24 00:34:04;;;;;;;3.40;1.90;;;8.40;87.30;;;;;;5048805;28;20480;-75
2021/04/24 00:36:31;;;;;;;3.20;2.10;;;8.40;87.60;;;;;;5048977;28;20227;-75
2021/04/24 00:38:57;;;;;;;2.73;2.10;;;8.30;88.70;;;;;;5048895;28;20208;-75
2021/04/24 00:41:23;;;;;;;2.73;1.90;;;8.20;89.90;;;;;;5048453;28;20258;-75
2021/04/24 00:43:50;;;;;;;4.00;2.17;;;8.20;90.00;;;;;;5048592;28;20235;-76
2021/04/24 00:46:17;;;;;;;5.50;2.50;;;8.30;90.10;;;;;;5048569;28;20571;-76
2021/04/24 00:48:44;;;;;;;2.80;2.20;;;8.30;90.30;;;;;;5048810;28;20203;-76
2021/04/24 00:51:10;;;;;;;3.07;2.40;;;8.40;90.60;;;;;;5048627;28;20242;-76
2021/04/24 00:53:36;;;;;;;3.23;2.40;;;8.40;90.80;;;;;;5048485;28;20219;-75
2021/04/24 00:56:04;;;;;;;3.67;2.13;;;8.40;91.10;;;;;;5048369;28;20207;-75
2021/04/24 00:58:31;;;;;;;3.20;2.57;;;8.40;91.20;;;;;;5048721;28;20208;-76
2021/04/24 01:00:58;;;;;;;3.00;2.27;;;8.40;91.60;;;;;;5048575;28;20204;-74
2021/04/24 01:03:24;;;;;;;6.90;2.03;;;8.40;91.80;;;;;;5048266;28;20227;-75
2021/04/24 01:05:50;;;;;;;4.00;2.30;;;8.50;91.90;;;;;;5048428;28;20207;-75
2021/04/24 01:08:16;;;;;;;2.90;2.30;;;8.50;92.10;;;;;;5048370;28;20577;-75
2021/04/24 01:10:44;;;;;;;5.17;2.27;;;8.40;92.30;;;;;;5048159;28;20215;-75
2021/04/24 01:13:12;;;;;;;3.10;2.10;;;8.40;92.50;;;;;;5048081;28;20222;-75
2021/04/24 01:15:38;;;;;;;3.13;2.00;;;8.50;92.60;;;;;;5065979;28;20247;-76
2021/04/24 01:18:07;;;;;;;4.03;2.50;;;8.40;92.70;;;;;;5067615;28;20568;-76
2021/04/24 01:20:34;;;;;;;4.40;2.43;;;8.40;93.00;;;;;;5067742;28;20215;-76
2021/04/24 01:23:05;;;;;;;2.30;2.07;;;8.40;93.00;;;;;;5067298;28;20556;-76
2021/04/24 01:25:31;;;;;;;5.17;2.53;;;8.40;93.10;;;;;;5068432;28;20203;-76
2021/04/24 01:27:59;;;;;;;2.97;2.20;;;8.40;93.20;;;;;;5068037;28;20590;-76
2021/04/24 01:30:27;;;;;;;3.57;2.23;;;8.30;93.30;;;;;;5068311;28;20211;-76
2021/04/24 01:32:55;;;;;;;6.73;3.00;;;8.20;93.50;;;;;;5067960;28;20644;-76
2021/04/24 01:35:23;;;;;;;6.33;2.60;;;8.10;93.80;;;;;;5068238;28;20281;-77
2021/04/24 01:37:50;;;;;;;4.43;2.33;;;8.10;94.00;;;;;;5068284;28;20207;-76
2021/04/24 01:40:18;;;;;;;5.10;2.60;;;8.10;94.10;;;;;;5067972;28;20222;-76
2021/04/24 01:42:45;;;;;;;5.47;3.00;;;8.10;94.20;;;;;;5068052;28;20199;-76
2021/04/24 01:45:14;;;;;;;3.50;3.07;;;8.10;94.30;;;;;;5067910;28;20239;-76
2021/04/24 01:47:42;;;;;;;5.57;3.13;;;8.00;94.60;;;;;;5068264;28;20214;-76
2021/04/24 01:50:10;;;;;;;6.60;3.20;;;7.90;95.10;;;;;;5068059;28;20211;-76
2021/04/24 01:52:38;;;;;;;3.37;2.43;;;7.90;95.30;;;;;;5068051;28;20199;-76
2021/04/24 01:55:06;;;;;;;4.47;2.90;;;7.90;95.60;;;;;;5067880;28;20243;-76
2021/04/24 01:57:33;;;;;;;4.07;2.50;;;7.90;95.70;;;;;;5067927;28;20211;-76
2021/04/24 01:59:59;;;;;;;3.53;2.53;;;7.90;95.90;;;;;;5067897;28;20215;-76
2021/04/24 02:02:26;;;;;;;5.63;2.70;;;7.80;96.10;;;;;;5067777;28;20203;-76
2021/04/24 02:04:52;;;;;;;4.70;2.67;;;7.80;96.30;;;;;;5067606;28;20235;-76
2021/04/24 02:07:19;;;;;;;5.17;3.00;;;7.80;96.40;;;;;;5067746;28;20215;-76
2021/04/24 02:09:45;;;;;;;4.30;2.70;;;7.80;96.50;;;;;;5067833;28;20261;-76
2021/04/24 02:12:13;;;;;;;3.10;2.67;;;7.80;96.80;;;;;;5067562;28;20243;-76
2021/04/24 02:14:42;;;;;;;6.07;3.13;;;7.80;97.00;;;;;;5067842;28;20211;-75
2021/04/24 02:17:13;;;;;;;5.03;3.30;;;7.70;97.20;;;;;;5067126;28;20243;-75
2021/04/24 02:19:41;;;;;;;6.37;3.30;;;7.70;97.30;;;;;;5067944;28;20234;-75
2021/04/24 02:22:08;;;;;;;5.43;3.03;;;7.70;97.40;;;;;;5067569;28;20203;-76
2021/04/24 02:24:40;;;;;;;6.00;2.90;;;7.70;98.00;;;;;;5067539;28;20227;-74
2021/04/24 02:27:07;;;;;;;4.00;3.60;;;7.70;97.90;;;;;;5070621;28;20210;-75
2021/04/24 02:29:33;;;;;;;5.83;3.30;;;7.70;98.00;;;;;;5071277;28;20234;-75
2021/04/24 02:32:00;;;;;;;7.30;3.40;;;7.70;98.10;;;;;;5070878;28;20564;-76
2021/04/24 02:34:26;;;;;;;4.13;3.00;;;7.70;98.30;;;;;;5070973;28;20208;-77
2021/04/24 02:36:53;;;;;;;3.93;3.00;;;7.70;98.40;;;;;;5070719;28;20614;-75
2021/04/24 02:39:27;;;;;;;7.17;3.50;;;7.70;98.60;;;;;;5070931;28;20595;-75
2021/04/24 02:41:53;;;;;;;4.93;3.90;;;7.70;98.80;;;;;;5071224;28;20199;-75
2021/04/24 02:44:19;;;;;;;5.03;3.30;;;7.60;99.00;;;;;;5070853;28;20231;-75
2021/04/24 02:46:46;;;;;;;6.10;3.60;;;7.60;99.10;;;;;;5070900;28;20215;-73
2021/04/24 02:49:13;;;;;;;8.43;3.83;;;7.60;99.30;;;;;;5070676;28;20613;-73
2021/04/24 02:51:39;;;;;;;6.37;3.40;;;7.40;99.60;;;;;;5070250;28;20697;-73
2021/04/24 02:54:06;;;;;;;7.17;4.20;;;7.50;99.90;;;;;;5070298;28;20774;-73
2021/04/24 02:56:32;;;;;;;7.13;4.00;;;7.40;99.90;;;;;;5070771;28;20212;-74
2021/04/24 02:58:58;;;;;;;5.40;3.53;;;7.40;99.90;;;;;;5070214;28;20214;-74
2021/04/24 03:01:24;;;;;;;5.33;3.50;;;7.40;99.90;;;;;;5070394;28;20211;-74
2021/04/24 03:03:51;;;;;;;7.93;3.23;;;7.30;99.90;;;;;;5070355;28;20226;-74
2021/04/24 03:06:18;;;;;;;7.60;3.47;;;7.30;99.90;;;;;;5070304;28;20199;-74
2021/04/24 03:08:44;;;;;;;5.67;3.47;;;7.30;99.90;;;;;;5070428;28;20206;-74
2021/04/24 03:11:10;;;;;;;7.43;4.17;;;7.30;99.90;;;;;;5070364;28;20242;-74
2021/04/24 03:13:36;;;;;;;6.23;3.77;;;7.30;99.90;;;;;;5070334;28;20207;-74
2021/04/24 03:16:02;;;;;;;6.10;3.70;;;7.30;99.90;;;;;;5069861;28;20246;-75
2021/04/24 03:18:29;;;;;;;6.93;3.83;;;7.30;99.90;;;;;;5070225;28;20263;-74
2021/04/24 03:20:55;;;;;;;6.20;3.57;;;7.20;99.90;;;;;;5070263;28;20204;-74
2021/04/24 03:23:22;;;;;;;8.00;3.97;;;7.20;99.90;;;;;;5069685;28;20234;-74
2021/04/24 03:25:48;;;;;;;7.60;4.27;;;7.20;99.90;;;;;;5069995;28;20273;-74
2021/04/24 03:28:14;;;;;;;10.60;4.47;;;7.10;99.90;;;;;;5069903;28;20253;-75
2021/04/24 03:30:40;;;;;;;8.33;4.07;;;7.10;99.90;;;;;;5069620;28;20206;-75
2021/04/24 03:33:06;;;;;;;5.90;3.87;;;7.10;99.90;;;;;;5070187;28;20211;-75
2021/04/24 03:35:33;;;;;;;8.67;4.40;;;7.00;99.90;;;;;;5070021;28;20200;-74
2021/04/24 03:37:59;;;;;;;7.43;4.30;;;7.00;99.90;;;;;;5069587;28;20211;-74
2021/04/24 03:40:26;;;;;;;7.80;4.00;;;7.00;99.90;;;;;;5069430;28;20223;-74
2021/04/24 03:42:52;;;;;;;9.20;4.50;;;6.90;99.90;;;;;;5069788;28;20445;-75
2021/04/24 03:45:19;;;;;;;7.10;4.10;;;6.80;99.90;;;;;;5069556;28;20243;-75
2021/04/24 03:47:46;;;;;;;5.57;4.53;;;6.80;99.90;;;;;;5069569;28;20246;-74
2021/04/24 03:50:14;;;;;;;6.27;4.00;;;6.90;99.90;;;;;;5069838;28;20281;-75
2021/04/24 03:52:40;;;;;;;8.30;4.10;;;6.90;99.90;;;;;;5069693;28;20211;-74
2021/04/24 03:55:07;;;;;;;9.17;4.13;;;6.90;99.90;;;;;;5069400;28;20235;-74
2021/04/24 03:57:34;;;;;;;6.20;4.00;;;6.90;99.90;;;;;;5069580;28;20252;-74
2021/04/24 04:00:00;;;;;;;5.50;4.20;;;6.90;99.90;;;;;;5069333;28;20207;-74
2021/04/24 04:02:26;;;;;;;6.10;3.73;;;6.90;99.90;;;;;;5069430;28;20203;-74
2021/04/24 04:04:53;;;;;;;5.40;4.13;;;6.90;99.90;;;;;;5069088;28;20238;-74
2021/04/24 04:07:19;;;;;;;5.13;4.40;;;6.90;99.90;;;;;;5069177;28;20219;-74
2021/04/24 04:09:45;;;;;;;6.90;4.60;;;6.80;99.90;;;;;;5069131;28;20207;-74
2021/04/24 04:12:11;;;;;;;8.07;4.63;;;6.90;99.90;;;;;;5068944;28;20223;-74
2021/04/24 04:14:38;;;;;;;6.90;4.47;;;6.90;99.90;;;;;;5068872;28;20210;-74
2021/04/24 04:17:04;;;;;;;5.93;4.27;;;6.80;99.90;;;;;;5068548;28;20241;-75
2021/04/24 04:19:30;;;;;;;6.77;4.17;;;6.80;99.90;;;;;;5068979;28;20218;-75
2021/04/24 04:21:57;;;;;;;9.10;4.87;;;6.80;99.90;;;;;;5069022;28;20210;-76
2021/04/24 04:24:23;;;;;;;9.63;5.47;;;6.80;99.90;;;;;;5069064;28;20266;-76
2021/04/24 04:26:49;;;;;;;8.07;5.03;;;6.80;99.90;;;;;;5069124;28;20207;-75
2021/04/24 04:29:18;;;;;;;6.73;5.03;;;6.80;99.90;;;;;;5068600;28;20269;-75
2021/04/24 04:31:44;;;;;;;8.47;4.80;;;6.70;99.90;;;;;;5069017;28;20223;-75
2021/04/24 04:34:11;;;;;;;8.30;4.90;;;6.80;99.90;;;;;;5068576;28;20207;-75
2021/04/24 04:36:37;;;;;;;7.83;4.63;;;6.80;99.90;;;;;;5068690;28;20208;-75
2021/04/24 04:39:03;;;;;;;6.67;4.67;;;6.70;99.90;;;;;;5068835;28;20207;-75
2021/04/24 04:41:29;;;;;;;5.63;4.83;;;6.70;99.90;;;;;;5068144;28;20577;-75
2021/04/24 04:43:56;;;;;;;8.37;4.60;;;6.70;99.90;;;;;;5068644;28;20235;-75
2021/04/24 04:46:22;;;;;;;11.27;5.30;;;6.70;99.90;;;;;;5068252;28;20689;-75
2021/04/24 04:48:49;;;;;;;8.03;4.63;;;6.40;99.90;;;;;;5068215;28;20211;-75
2021/04/24 04:51:15;;;;;;;7.77;4.97;;;6.40;99.90;;;;;;5068685;28;20578;-75
2021/04/24 04:53:44;;;;;;;7.30;4.97;;;6.40;99.90;;;;;;5068514;28;20276;-75
2021/04/24 04:56:10;;;;;;;7.37;4.93;;;6.40;99.90;;;;;;5068083;28;20702;-74
2021/04/24 04:58:36;;;;;;;7.07;5.33;;;6.30;99.90;;;;;;5068175;28;20211;-74
2021/04/24 05:01:03;;;;;;;8.03;5.10;;;6.30;99.90;;;;;;5068426;28;20208;-74
2021/04/24 05:03:29;;;;;;;7.87;5.70;;;6.00;99.90;;;;;;5068053;28;20218;-74
2021/04/24 05:05:58;;;;;;;10.20;5.63;;;5.80;99.90;;;;;;5067832;28;21027;-74
2021/04/24 05:08:24;;;;;;;8.70;5.77;;;5.60;99.90;;;;;;5068245;28;20295;-75
2021/04/24 05:10:51;;;;;;;9.37;5.70;;;5.70;99.90;;;;;;5068156;28;20215;-75
2021/04/24 05:13:17;;;;;;;7.30;5.10;;;5.70;99.90;;;;;;5068215;28;20208;-77
2021/04/24 05:15:44;;;;;;;9.20;5.80;;;5.50;99.90;;;;;;5068091;28;20763;-76
2021/04/24 05:18:12;;;;;;;10.17;5.87;;;5.50;99.90;;;;;;5068646;28;20192;-76
2021/04/24 05:20:40;;;;;;;10.90;6.53;;;5.40;99.90;;;;;;5068259;28;20246;-76
2021/04/24 05:23:07;;;;;;;8.07;6.23;;;5.30;99.90;;;;;;5068269;28;20211;-77
2021/04/24 05:25:33;;;;;;;11.70;6.00;;;5.30;99.90;;;;;;5068186;28;20262;-75
2021/04/24 05:27:59;;;;;;;10.10;6.60;;;5.40;99.90;;;;;;5068233;28;20212;-75
2021/04/24 05:30:25;;;;;;;14.37;7.03;;;5.20;99.90;;;;;;5067993;28;20216;-74
2021/04/24 05:32:51;;;;;;;10.47;6.10;;;5.20;99.90;;;;;;5067948;28;20622;-75
2021/04/24 05:35:17;;;;;;;12.43;6.93;;;5.40;99.90;;;;;;5067931;28;20203;-75
2021/04/24 05:37:44;;;;;;;10.03;6.67;;;5.30;99.90;;;;;;5068196;28;20200;-75
2021/04/24 05:40:11;;;;;;;11.53;7.33;;;5.30;99.90;;;;;;5068088;28;20582;-75
2021/04/24 05:42:37;;;;;;;10.67;7.17;;;5.30;99.90;;;;;;5067717;28;20207;-75
2021/04/24 05:45:10;;;;;;;11.73;7.50;;;5.20;99.90;;;;;;5067998;28;20585;-75
2021/04/24 05:47:37;;;;;;;17.77;7.60;;;5.10;99.90;;;;;;5068071;28;20200;-75
2021/04/24 05:50:06;;;;;;;11.33;7.33;;;5.10;99.90;;;;;;5062156;28;20197;-75
2021/04/24 05:52:32;;;;;;;10.93;7.70;;;5.20;99.90;;;;;;5057477;28;20238;-73
2021/04/24 05:54:59;;;;;;;12.30;7.50;;;5.30;99.90;;;;;;5057503;28;20486;-75
2021/04/24 05:57:26;;;;;;;15.43;8.93;;;5.20;99.90;;;;;;5057699;28;20206;-75
2021/04/24 05:59:52;;;;;;;12.60;7.63;;;5.30;99.90;;;;;;5056478;28;20203;-75
2021/04/24 06:02:18;;;;;;;14.00;7.73;;;5.40;99.90;;;;;;5059394;28;20646;-75
2021/04/24 06:04:44;;;;;;;11.23;7.60;;;5.50;99.90;;;;;;5058303;28;20228;-72
2021/04/24 06:07:10;;;;;;;10.93;7.33;;;5.80;99.90;;;;;;5058566;28;20206;-74
2021/04/24 06:09:36;;;;;;;11.27;7.37;;;5.90;99.90;;;;;;5066982;28;20200;-75
2021/04/24 06:12:02;;;;;;;14.43;7.70;;;5.90;99.90;;;;;;5058667;28;20232;-75
2021/04/24 06:14:29;;;;;;;15.07;7.57;;;5.90;99.90;;;;;;5059365;28;20212;-75
2021/04/24 06:16:58;;;;;;;10.10;7.13;;;6.10;99.90;;;;;;5049096;28;20268;-74
2021/04/24 06:19:24;;;;;;;8.83;7.03;;;6.20;99.90;;;;;;5060196;28;20963;-75
2021/04/24 06:21:50;;;;;;;10.20;7.37;;;6.20;99.90;;;;;;5069537;28;20207;-77
2021/04/24 06:24:16;;;;;;;9.50;7.67;;;6.50;99.90;;;;;;5068829;28;20227;-77
2021/04/24 06:26:42;;;;;;;11.43;7.27;;;6.60;99.90;;;;;;5063883;28;20207;-75
2021/04/24 06:29:09;;;;;;;8.50;6.57;;;6.70;99.90;;;;;;5061845;28;20204;-74
2021/04/24 06:31:36;;;;;;;11.33;7.17;;;6.90;99.90;;;;;;5062349;28;20235;-75
2021/04/24 06:34:02;;;;;;;10.93;7.90;;;6.90;99.90;;;;;;5060311;28;20262;-75
2021/04/24 06:36:30;;;;;;;11.77;7.20;;;6.80;99.90;;;;;;5049504;28;20208;-75
2021/04/24 06:38:58;;;;;;;8.00;6.47;;;6.90;99.90;;;;;;5066644;28;20211;-75
2021/04/24 06:41:24;;;;;;;12.77;7.27;;;6.90;99.90;;;;;;5066232;28;20200;-75
2021/04/24 06:43:50;;;;;;;19.00;7.37;;;6.90;99.90;;;;;;5068924;28;20266;-76
2021/04/24 06:46:16;;;;;;;7.73;6.17;;;7.10;99.90;;;;;;5068562;28;20708;-75
2021/04/24 06:48:44;;;;;;;9.53;6.97;;;7.00;99.90;;;;;;5068714;28;20204;-77
2021/04/24 06:51:10;;;;;;;10.00;7.30;;;7.20;99.90;;;;;;5063672;28;20318;-75
2021/04/24 06:53:36;;;;;;;10.00;6.57;;;7.30;99.90;;;;;;5050607;28;20718;-76
2021/04/24 06:56:03;;;;;;;9.43;6.40;;;7.50;99.90;;;;;;5048621;28;20218;-75
2021/04/24 06:58:29;;;;;;;12.47;7.23;;;7.70;99.90;;;;;;5060170;28;20208;-76
2021/04/24 07:00:55;;;;;;;8.30;6.53;;;7.50;99.90;;;;;;5060247;28;20257;-78
2021/04/24 07:03:21;;;;;;;8.53;6.03;;;7.70;99.90;;;;;;5070418;28;20249;-75
2021/04/24 07:05:49;;;;;;;7.10;6.20;;;7.40;99.90;;;;;;5061546;28;20231;-76
2021/04/24 07:08:15;;;;;;;8.20;6.00;;;7.20;99.90;;;;;;5061734;28;20218;-75
2021/04/24 07:10:41;;;;;;;9.87;6.30;;;7.00;99.90;;;;;;5069561;28;20245;-75
2021/04/24 07:13:09;;;;;;;9.43;6.23;;;7.00;99.90;;;;;;5062282;28;20200;-75
2021/04/24 07:15:35;;;;;;;8.07;6.00;;;6.90;99.90;;;;;;5067712;28;20243;-75
2021/04/24 07:18:02;;;;;;;11.60;6.83;;;7.20;99.90;;;;;;5069981;28;20606;-75
2021/04/24 07:20:28;;;;;;;9.30;6.80;;;6.90;99.90;;;;;;5070004;28;20260;-75
2021/04/24 07:22:58;;;;;;;10.40;6.50;;;6.60;99.90;;;;;;5069804;28;20666;-75
2021/04/24 07:25:24;;;;;;;10.60;6.47;;;6.50;99.90;;;;;;5069922;28;20239;-75
2021/04/24 07:27:50;;;;;;;9.17;6.53;;;6.50;99.90;;;;;;5053512;28;20574;-75
2021/04/24 07:30:17;;;;;;;9.60;6.63;;;6.70;99.90;;;;;;5056051;28;21039;-75
2021/04/24 07:32:43;;;;;;;9.77;6.67;;;6.70;99.90;;;;;;5053495;28;20235;-78
2021/04/24 07:35:11;;;;;;;9.13;6.40;;;6.80;99.90;;;;;;5061046;28;21012;-78
2021/04/24 07:37:37;;;;;;;9.23;6.20;;;7.00;99.90;;;;;;5055341;28;20721;-75
2021/04/24 07:40:06;;;;;;;8.17;6.17;;;7.00;99.90;;;;;;5049720;28;20219;-75
2021/04/24 07:42:32;;;;;;;12.17;6.23;;;7.00;99.90;;;;;;5058422;28;20208;-76
2021/04/24 07:44:59;;;;;;;5.47;4.90;;;7.00;99.90;;;;;;5069608;28;20246;-77
2021/04/24 07:47:25;;;;;;;7.33;5.47;;;7.10;99.90;;;;;;5069533;28;20223;-75
2021/04/24 07:49:52;;;;;;;8.00;6.30;;;7.20;99.90;;;;;;5069779;28;20200;-76
2021/04/24 07:52:19;;;;;;;6.47;5.67;;;7.30;99.90;;;;;;5069361;28;20204;-75
2021/04/24 07:54:46;;;;;;;7.50;5.20;;;7.10;99.90;;;;;;5069267;28;20219;-76
2021/04/24 07:57:14;;;;;;;10.90;5.73;;;7.10;99.90;;;;;;5069224;28;20199;-75
2021/04/24 07:59:41;;;;;;;6.43;5.70;;;7.20;99.90;;;;;;5069606;28;20268;-75
2021/04/24 08:02:07;;;;;;;7.73;5.13;;;7.40;99.90;;;;;;5069274;28;20211;-75
2021/04/24 08:04:33;;;;;;;8.93;5.53;;;7.40;99.90;;;;;;5069188;28;20227;-76
2021/04/24 08:07:01;;;;;;;7.47;5.83;;;7.60;99.90;;;;;;5069136;28;20261;-76
2021/04/24 08:09:27;;;;;;;5.43;4.77;;;7.80;99.90;;;;;;5068830;28;20753;-76
2021/04/24 08:11:54;;;;;;;8.30;5.47;;;7.90;99.90;;;;;;5068899;28;20553;-76
2021/04/24 08:14:21;;;;;;;6.40;4.80;;;8.00;99.90;;;;;;5069056;28;20207;-76
2021/04/24 08:16:47;;;;;;;6.63;5.07;;;8.10;99.90;;;;;;5068636;28;20243;-75
2021/04/24 08:19:13;;;;;;;6.63;4.67;;;8.20;99.90;;;;;;5068960;28;20207;-76
2021/04/24 08:21:40;;;;;;;8.73;5.37;;;8.40;99.90;;;;;;5068846;28;20216;-76
2021/04/24 08:24:07;;;;;;;4.80;4.30;;;8.60;99.90;;;;;;5068268;28;20231;-76
2021/04/24 08:26:33;;;;;;;5.23;4.10;;;8.80;99.90;;;;;;5068385;28;20682;-76
2021/04/24 08:28:59;;;;;;;5.03;4.00;;;8.80;99.90;;;;;;5068954;28;20203;-76
2021/04/24 08:31:26;;;;;;;7.63;4.13;;;8.70;99.90;;;;;;5068704;28;20215;-76
2021/04/24 08:33:52;;;;;;;6.97;4.20;;;8.60;99.90;;;;;;5068340;28;20678;-76
2021/04/24 08:36:19;;;;;;;5.83;5.13;;;8.70;99.90;;;;;;5068720;28;20215;-76
2021/04/24 08:38:45;;;;;;;6.50;4.40;;;8.60;99.90;;;;;;5068747;28;20207;-76
2021/04/24 08:41:11;;;;;;;5.57;3.73;;;8.70;99.90;;;;;;5068486;28;20208;-76
2021/04/24 08:43:38;;;;;;;10.17;3.90;;;8.70;99.90;;;;;;5068610;28;20616;-76
2021/04/24 08:46:05;;;;;;;5.83;3.43;;;8.90;99.90;;;;;;5068755;28;20203;-76
2021/04/24 08:48:33;;;;;;;4.67;3.70;;;9.00;99.90;;;;;;5068441;28;20204;-76
2021/04/24 08:50:59;;;;;;;5.50;3.80;;;9.10;99.90;;;;;;5068612;28;20204;-76
2021/04/24 08:53:25;;;;;;;5.30;3.23;;;9.20;99.90;;;;;;5068470;28;20231;-76
2021/04/24 08:55:52;;;;;;;4.23;3.80;;;9.10;99.90;;;;;;5068835;28;20207;-76
2021/04/24 08:58:20;;;;;;;4.13;3.03;;;9.10;99.90;;;;;;5066109;28;20207;-76
2021/04/24 09:00:49;;;;;;;11.67;4.63;;;9.30;99.90;;;;;;5068302;28;20212;-76
2021/04/24 09:03:19;;;;;;;8.10;5.03;;;9.30;99.90;;;;;;5068493;28;20211;-76
2021/04/24 09:05:46;;;;;;;7.40;5.40;;;9.50;99.90;;;;;;5068884;28;20238;-76
2021/04/24 09:08:12;;;;;;;3.63;3.33;;;9.70;99.90;;;;;;5068467;28;20629;-76
2021/04/24 09:10:43;;;;;;;4.50;3.60;;;9.70;99.90;;;;;;5068249;28;20207;-75
2021/04/24 09:13:11;;;;;;;3.77;3.40;;;9.70;99.90;;;;;;5068456;28;20218;-75
2021/04/24 09:15:37;;;;;;;8.37;3.80;;;9.70;99.90;;;;;;5067865;28;20235;-76
2021/04/24 09:18:05;;;;;;;4.60;3.70;;;9.60;99.90;;;;;;5068183;28;20200;-75
2021/04/24 09:20:34;;;;;;;4.23;3.53;;;9.70;99.90;;;;;;5068227;28;20210;-75
2021/04/24 09:23:04;;;;;;;5.70;3.40;;;9.60;99.90;;;;;;5068462;28;20215;-75
2021/04/24 09:25:39;;;;;;;3.80;3.00;;;9.70;99.90;;;;;;5067829;28;20219;-76
2021/04/24 09:28:08;;;;;;;7.97;3.20;;;9.40;99.90;;;;;;5068205;28;20206;-75
2021/04/24 09:30:37;;;;;;;4.93;2.77;;;9.40;99.90;;;;;;5049020;28;20227;-75
2021/04/24 09:33:06;;;;;;;4.73;2.97;;;9.50;99.90;;;;;;5048242;28;20212;-76
2021/04/24 09:35:40;;;;;;;4.30;2.70;;;9.50;99.90;;;;;;5054188;28;20219;-77
2021/04/24 09:38:09;;;;;;;5.17;3.50;;;9.90;99.90;;;;;;5060664;28;20202;-76
2021/04/24 09:40:35;;;;;;;4.60;3.63;;;9.90;99.90;;;;;;5061389;28;20738;-76
2021/04/24 09:43:04;;;;;;;6.40;3.93;;;9.70;99.90;;;;;;5051975;28;20208;-77
2021/04/24 09:45:33;;;;;;;4.57;3.57;;;9.70;99.90;;;;;;5051742;28;20238;-77
2021/04/24 09:48:00;;;;;;;5.30;3.43;;;9.60;99.90;;;;;;5051864;28;20462;-78
2021/04/24 09:50:32;;;;;;;7.57;3.60;;;9.60;99.90;;;;;;5051737;28;20463;-77
2021/04/24 09:53:17;;;;;;;4.80;3.10;;;9.60;99.90;;;;;;5051929;28;20204;-77
2021/04/24 09:55:44;;;;;;;6.57;3.97;;;9.60;99.90;;;;;;5051484;28;20294;-77
2021/04/24 09:58:25;;;;;;;4.70;3.50;;;9.50;99.90;;;;;;5052065;28;20204;-77
2021/04/24 10:00:51;;;;;;;4.60;2.90;;;9.40;99.90;;;;;;5051794;28;20196;-77
2021/04/24 10:03:36;;;;;;;4.67;3.07;;;9.30;99.90;;;;;;5051758;28;20309;-77
2021/04/24 10:06:22;;;;;;;5.00;2.80;;;9.10;99.90;;;;;;5051730;28;20223;-77
2021/04/24 10:08:49;;;;;;;4.43;2.77;;;9.40;99.90;;;;;;5051592;28;20215;-77
2021/04/24 10:11:26;;;;;;;4.07;3.07;;;9.60;99.90;;;;;;5051685;28;20204;-77
2021/04/24 10:13:53;;;;;;;3.07;2.83;;;9.70;99.90;;;;;;5051611;28;20876;-76
2021/04/24 10:16:33;;;;;;;3.80;3.00;;;9.50;99.90;;;;;;5051236;28;20236;-77
2021/04/24 10:19:00;;;;;;;3.53;2.60;;;9.50;99.90;;;;;;5051824;28;20245;-77
2021/04/24 10:21:26;;;;;;;5.17;2.97;;;9.30;99.90;;;;;;5051547;28;20208;-77
2021/04/24 10:23:53;;;;;;;3.43;2.50;;;9.20;99.90;;;;;;5051298;28;20208;-77
2021/04/24 10:26:20;;;;;;;3.40;2.80;;;9.40;99.90;;;;;;5051297;28;20255;-77
2021/04/24 10:28:46;;;;;;;5.80;2.97;;;9.50;99.90;;;;;;5051531;28;20208;-77
2021/04/24 10:31:13;;;;;;;4.93;2.70;;;9.50;99.90;;;;;;5051354;28;20215;-77
2021/04/24 10:33:40;;;;;;;3.63;2.60;;;9.70;99.70;;;;;;5051185;28;20250;-77
2021/04/24 10:36:07;;;;;;;5.30;3.00;;;9.90;99.90;;;;;;5051399;28;20216;-77
2021/04/24 10:38:33;;;;;;;3.83;3.07;;;10.00;99.90;;;;;;5068520;28;20208;-77
2021/04/24 10:41:01;;;;;;;5.77;3.50;;;9.90;99.90;;;;;;5070819;28;20578;-75
2021/04/24 10:43:27;;;;;;;5.60;3.30;;;10.10;99.90;;;;;;5071035;28;20207;-76
2021/04/24 10:45:53;;;;;;;3.60;2.87;;;10.10;99.90;;;;;;5070513;28;20284;-77
2021/04/24 10:48:24;;;;;;;8.00;3.10;;;10.10;99.90;;;;;;5070725;28;20261;-77
2021/04/24 10:50:50;;;;;;;3.73;2.73;;;10.20;99.90;;;;;;5070665;28;20218;-77
2021/04/24 10:53:21;;;;;;;4.90;2.80;;;10.40;99.90;;;;;;5070691;28;20626;-77
2021/04/24 10:55:49;;;;;;;6.37;2.87;;;10.60;99.30;;;;;;5070220;28;20203;-77
2021/04/24 10:58:17;;;;;;;3.57;2.80;;;11.00;99.40;;;;;;5070880;28;20207;-77
2021/04/24 11:00:58;;;;;;;4.97;3.30;;;11.20;98.70;;;;;;5070779;28;20211;-76
2021/04/24 11:03:41;;;;;;;8.17;3.00;;;10.90;97.80;;;;;;5070591;28;20211;-77
2021/04/24 11:06:09;;;;;;;5.37;2.83;;;11.00;98.30;;;;;;5070606;28;20223;-77
2021/04/24 11:08:36;;;;;;;5.17;3.20;;;11.30;98.30;;;;;;5070137;28;20203;-77
2021/04/24 11:11:05;;;;;;;6.03;3.40;;;11.40;97.40;;;;;;5070417;28;20294;-77
2021/04/24 11:13:40;;;;;;;10.13;2.97;;;11.50;97.40;;;;;;5065382;28;20222;-77
2021/04/24 11:16:09;;;;;;;4.47;3.10;;;11.50;97.60;;;;;;5067661;28;20230;-77
2021/04/24 11:18:37;;;;;;;2.77;2.50;;;11.60;97.00;;;;;;5059134;28;20208;-77
2021/04/24 11:21:05;;;;;;;9.43;3.37;;;11.60;97.30;;;;;;5047994;28;20291;-77
2021/04/24 11:23:45;;;;;;;5.33;2.90;;;11.70;96.20;;;;;;5047666;28;20211;-77
2021/04/24 11:26:14;;;;;;;5.60;3.07;;;11.70;96.00;;;;;;5047142;28;20226;-73
2021/04/24 11:29:07;;;;;;;3.53;3.10;;;11.80;97.10;;;;;;5047707;28;20543;-76
2021/04/24 11:31:58;;;;;;;4.47;3.03;;;11.60;96.50;;;;;;5063391;28;20195;-76
2021/04/24 11:34:27;;;;;;;5.50;2.77;;;11.90;96.10;;;;;;5067777;28;20670;-76
2021/04/24 11:37:26;;;;;;;5.20;2.70;;;12.00;94.90;;;;;;5067637;28;20567;-76
2021/04/24 11:40:16;;;;;;;4.63;2.60;;;12.00;95.10;;;;;;5067814;28;20296;-75
2021/04/24 11:43:03;;;;;;;3.60;2.63;;;11.90;94.80;;;;;;5059983;28;20218;-76
2021/04/24 11:46:04;;;;;;;3.13;2.60;;;12.00;95.00;;;;;;5049060;28;20598;-76
2021/04/24 11:49:01;;;;;;;6.80;2.77;;;12.10;94.60;;;;;;5006997;28;20201;-76
2021/04/24 11:51:31;;;;;;;8.37;2.83;;;11.90;94.50;;;;;;5007333;28;20194;-77
2021/04/24 11:53:58;;;;;;;3.57;2.93;;;11.80;94.70;;;;;;5036472;28;20232;-76
2021/04/24 11:56:25;;;;;;;3.33;2.70;;;11.90;94.90;;;;;;5050008;28;20215;-76
2021/04/24 11:58:51;;;;;;;4.63;2.50;;;11.80;94.70;;;;;;5048592;28;20212;-77
2021/04/24 12:01:19;;;;;;;4.47;3.20;;;11.70;95.30;;;;;;5049529;28;20211;-76
2021/04/24 12:03:45;;;;;;;6.60;3.23;;;11.50;95.40;;;;;;5048960;28;20212;-75
2021/04/24 12:06:12;;;;;;;3.73;3.23;;;11.10;96.00;;;;;;5049573;28;20231;-76
2021/04/24 12:08:38;;;;;;;5.90;3.43;;;11.10;96.70;;;;;;5049174;28;20204;-76
2021/04/24 12:11:09;;;;;;;5.67;3.13;;;10.90;96.50;;;;;;5049322;28;20209;-76
2021/04/24 12:13:35;;;;;;;5.13;3.20;;;10.90;97.20;;;;;;5049304;28;20200;-75
2021/04/24 12:16:07;;;;;;;4.47;3.17;;;11.10;96.90;;;;;;5049251;28;20235;-76
2021/04/24 12:18:34;;;;;;;3.67;3.27;;;11.30;96.80;;;;;;5049178;28;20212;-76
2021/04/24 12:21:01;;;;;;;5.80;3.47;;;11.40;96.40;;;;;;5049290;28;20212;-76
2021/04/24 12:23:27;;;;;;;6.23;3.23;;;11.40;96.70;;;;;;5048749;28;20219;-76
2021/04/24 12:25:53;;;;;;;4.80;2.83;;;11.50;95.30;;;;;;5048687;28;20698;-76
2021/04/24 12:28:22;;;;;;;6.77;3.57;;;11.60;95.10;;;;;;5048797;28;20659;-75
2021/04/24 12:30:50;;;;;;;4.50;3.03;;;11.60;95.20;;;;;;5048973;28;20305;-76
2021/04/24 12:33:17;;;;;;;4.50;3.23;;;11.70;95.00;;;;;;5048691;28;20671;-76
2021/04/24 12:35:47;;;;;;;4.83;2.93;;;11.60;94.60;;;;;;5048909;28;20212;-75
2021/04/24 12:38:17;;;;;;;3.67;2.80;;;11.40;95.20;;;;;;5048915;28;20208;-75
2021/04/24 12:40:45;;;;;;;6.13;3.40;;;11.40;95.20;;;;;;5048668;28;20216;-76
2021/04/24 12:43:14;;;;;;;4.63;3.23;;;11.50;95.50;;;;;;5048806;28;20215;-75
2021/04/24 12:45:43;;;;;;;3.27;2.97;;;11.60;95.40;;;;;;5048669;28;20243;-76
2021/04/24 12:48:13;;;;;;;4.07;3.47;;;11.40;95.30;;;;;;5048706;28;20672;-76
2021/04/24 12:50:41;;;;;;;3.90;2.70;;;11.40;95.40;;;;;;5048484;28;20576;-75
2021/04/24 12:53:10;;;;;;;4.50;3.43;;;11.50;95.80;;;;;;5048740;28;20232;-76
2021/04/24 12:55:38;;;;;;;3.50;2.73;;;11.60;95.70;;;;;;5048139;28;20603;-76
2021/04/24 12:58:07;;;;;;;5.63;2.70;;;11.70;94.90;;;;;;5048373;28;20208;-75